sensor_id;sensor_type;location;lat;lon;timestamp;pressure;altitude;pressure_sealevel;temperature;humidity
34185;BME280;20454;48.100;11.776;2023-05-22T00:02:09;95028.00;;;17.26;68.19
34185;BME280;20454;48.100;11.776;2023-05-22T00:04:34;95028.00;;;17.26;68.57
34185;BME280;20454;48.100;11.776;2023-05-22T00:07:00;95031.63;;;17.27;68.24
34185;BME280;20454;48.100;11.776;2023-05-22T00:09:26;95028.00;;;17.26;68.51
34185;BME280;20454;48.100;11.776;2023-05-22T00:11:51;95033.63;;;17.26;68.21
34185;BME280;20454;48.100;11.776;2023-05-22T00:14:17;95023.56;;;17.25;68.21
34185;BME280;20454;48.100;11.776;2023-05-22T00:16:43;95031.19;;;17.25;68.64
34185;BME280;20454;48.100;11.776;2023-05-22T00:19:10;95030.00;;;17.26;68.51
34185;BME280;20454;48.100;11.776;2023-05-22T00:21:42;95030.00;;;17.26;68.51
34185;BME280;20454;48.100;11.776;2023-05-22T00:24:08;95025.19;;;17.26;68.51
34185;BME280;20454;48.100;11.776;2023-05-22T00:26:34;95019.56;;;17.26;68.61
34185;BME280;20454;48.100;11.776;2023-05-22T00:29:00;95028.00;;;17.26;68.21
34185;BME280;20454;48.100;11.776;2023-05-22T00:31:26;95016.75;;;17.26;68.42
34185;BME280;20454;48.100;11.776;2023-05-22T00:33:51;95019.13;;;17.24;68.27
34185;BME280;20454;48.100;11.776;2023-05-22T00:36:17;95022.38;;;17.26;68.32
34185;BME280;20454;48.100;11.776;2023-05-22T00:38:43;95022.00;;;17.28;68.57
34185;BME280;20454;48.100;11.776;2023-05-22T00:41:09;95022.38;;;17.26;68.54
34185;BME280;20454;48.100;11.776;2023-05-22T00:43:37;95023.19;;;17.27;68.23
34185;BME280;20454;48.100;11.776;2023-05-22T00:46:02;95017.16;;;17.25;68.49
34185;BME280;20454;48.100;11.776;2023-05-22T00:48:28;95016.75;;;17.26;68.20
34185;BME280;20454;48.100;11.776;2023-05-22T00:50:56;95021.56;;;17.26;68.58
34185;BME280;20454;48.100;11.776;2023-05-22T00:53:24;95016.69;;;17.23;68.46
34185;BME280;20454;48.100;11.776;2023-05-22T00:55:51;95024.38;;;17.26;68.26
34185;BME280;20454;48.100;11.776;2023-05-22T00:58:18;95014.75;;;17.27;68.46
34185;BME280;20454;48.100;11.776;2023-05-22T01:00:44;95013.09;;;17.22;68.65
34185;BME280;20454;48.100;11.776;2023-05-22T01:03:14;95012.69;;;17.24;68.43
34185;BME280;20454;48.100;11.776;2023-05-22T01:05:41;95014.69;;;17.23;68.36
34185;BME280;20454;48.100;11.776;2023-05-22T01:08:08;95014.34;;;17.25;68.53
34185;BME280;20454;48.100;11.776;2023-05-22T01:10:37;95018.31;;;17.24;68.51
34185;BME280;20454;48.100;11.776;2023-05-22T01:13:27;95019.56;;;17.26;68.56
34185;BME280;20454;48.100;11.776;2023-05-22T01:16:47;95016.38;;;17.28;68.55
34185;BME280;20454;48.100;11.776;2023-05-22T01:25:01;95025.94;;;17.23;68.42
34185;BME280;20454;48.100;11.776;2023-05-22T01:28:10;95028.00;;;17.26;68.51
34185;BME280;20454;48.100;11.776;2023-05-22T01:30:59;95032.00;;;17.25;68.25
34185;BME280;20454;48.100;11.776;2023-05-22T01:33:30;95028.75;;;17.23;68.69
34185;BME280;20454;48.100;11.776;2023-05-22T01:35:59;95029.94;;;17.22;68.53
34185;BME280;20454;48.100;11.776;2023-05-22T01:38:25;95036.00;;;17.24;68.45
34185;BME280;20454;48.100;11.776;2023-05-22T01:40:53;95034.81;;;17.25;68.42
34185;BME280;20454;48.100;11.776;2023-05-22T01:43:19;95037.63;;;17.25;68.29
34185;BME280;20454;48.100;11.776;2023-05-22T01:45:46;95035.63;;;17.26;68.39
34185;BME280;20454;48.100;11.776;2023-05-22T01:48:11;95042.44;;;17.25;68.60
34185;BME280;20454;48.100;11.776;2023-05-22T01:50:38;95036.81;;;17.25;68.64
34185;BME280;20454;48.100;11.776;2023-05-22T01:58:42;95042.44;;;17.25;68.74
34185;BME280;20454;48.100;11.776;2023-05-22T04:02:34;95062.88;;;17.22;68.91
34185;BME280;20454;48.100;11.776;2023-05-22T04:05:07;95062.06;;;17.21;68.84
34185;BME280;20454;48.100;11.776;2023-05-22T04:07:33;95072.13;;;17.22;68.60
34185;BME280;20454;48.100;11.776;2023-05-22T04:09:59;95071.31;;;17.22;68.89
34185;BME280;20454;48.100;11.776;2023-05-22T04:12:25;95077.75;;;17.22;68.57
34185;BME280;20454;48.100;11.776;2023-05-22T04:14:50;95077.28;;;17.20;69.00
34185;BME280;20454;48.100;11.776;2023-05-22T04:17:16;95070.88;;;17.20;68.68
34185;BME280;20454;48.100;11.776;2023-05-22T04:19:42;95085.00;;;17.23;68.76
34185;BME280;20454;48.100;11.776;2023-05-22T04:22:07;95071.66;;;17.20;68.97
34185;BME280;20454;48.100;11.776;2023-05-22T04:24:33;95080.56;;;17.22;68.70
34185;BME280;20454;48.100;11.776;2023-05-22T04:26:59;95075.72;;;17.23;68.74
34185;BME280;20454;48.100;11.776;2023-05-22T04:29:25;95075.72;;;17.23;68.62
34185;BME280;20454;48.100;11.776;2023-05-22T04:31:51;95080.09;;;17.20;69.08
34185;BME280;20454;48.100;11.776;2023-05-22T04:34:19;95079.31;;;17.20;68.71
34185;BME280;20454;48.100;11.776;2023-05-22T04:36:45;95082.19;;;17.23;68.94
34185;BME280;20454;48.100;11.776;2023-05-22T04:39:13;95076.13;;;17.21;68.94
34185;BME280;20454;48.100;11.776;2023-05-22T04:41:39;95087.81;;;17.23;68.98
34185;BME280;20454;48.100;11.776;2023-05-22T04:44:06;95093.78;;;17.22;68.81
34185;BME280;20454;48.100;11.776;2023-05-22T04:51:42;95089.38;;;17.21;68.73
34185;BME280;20454;48.100;11.776;2023-05-22T04:54:08;95095.41;;;17.23;68.73
34185;BME280;20454;48.100;11.776;2023-05-22T04:56:34;95105.03;;;17.22;68.72
34185;BME280;20454;48.100;11.776;2023-05-22T05:32:41;95104.69;;;17.23;68.91
34185;BME280;20454;48.100;11.776;2023-05-22T05:35:07;95112.75;;;17.25;68.93
34185;BME280;20454;48.100;11.776;2023-05-22T05:37:33;95108.69;;;17.22;68.75
34185;BME280;20454;48.100;11.776;2023-05-22T05:39:58;95111.50;;;17.22;68.69
34185;BME280;20454;48.100;11.776;2023-05-22T05:42:24;95110.31;;;17.23;68.79
34185;BME280;20454;48.100;11.776;2023-05-22T05:44:50;95108.69;;;17.22;68.97
34185;BME280;20454;48.100;11.776;2023-05-22T05:47:16;95108.28;;;17.24;68.81
34185;BME280;20454;48.100;11.776;2023-05-22T05:49:42;95111.09;;;17.24;68.94
34185;BME280;20454;48.100;11.776;2023-05-22T05:52:08;95110.66;;;17.22;69.07
34185;BME280;20454;48.100;11.776;2023-05-22T05:54:33;95101.88;;;17.23;69.04
34185;BME280;20454;48.100;11.776;2023-05-22T05:56:59;95105.66;;;17.34;68.43
34185;BME280;20454;48.100;11.776;2023-05-22T05:59:25;95105.56;;;17.50;67.45
34185;BME280;20454;48.100;11.776;2023-05-22T06:01:50;95105.28;;;17.55;67.21
34185;BME280;20454;48.100;11.776;2023-05-22T06:04:16;95106.06;;;17.55;67.03
34185;BME280;20454;48.100;11.776;2023-05-22T06:06:42;95106.53;;;17.57;66.87
34185;BME280;20454;48.100;11.776;2023-05-22T06:09:09;95112.16;;;17.57;66.96
34185;BME280;20454;48.100;11.776;2023-05-22T06:11:35;95108.16;;;17.58;67.42
34185;BME280;20454;48.100;11.776;2023-05-22T06:14:01;95103.31;;;17.59;67.31
34185;BME280;20454;48.100;11.776;2023-05-22T06:16:28;95106.94;;;17.59;67.19
34185;BME280;20454;48.100;11.776;2023-05-22T06:18:54;95100.50;;;17.59;67.16
34185;BME280;20454;48.100;11.776;2023-05-22T06:21:22;95104.13;;;17.59;66.95
34185;BME280;20454;48.100;11.776;2023-05-22T06:23:49;95098.50;;;17.59;66.91
34185;BME280;20454;48.100;11.776;2023-05-22T06:26:15;95107.78;;;17.60;66.95
34185;BME280;20454;48.100;11.776;2023-05-22T06:28:42;95101.31;;;17.59;67.27
34185;BME280;20454;48.100;11.776;2023-05-22T06:31:08;95102.94;;;17.60;67.00
34185;BME280;20454;48.100;11.776;2023-05-22T06:33:35;95101.31;;;17.59;66.90
34185;BME280;20454;48.100;11.776;2023-05-22T06:36:02;95103.78;;;17.61;67.21
34185;BME280;20454;48.100;11.776;2023-05-22T06:38:30;95101.69;;;17.58;67.13
34185;BME280;20454;48.100;11.776;2023-05-22T06:40:56;95109.41;;;17.61;66.92
34185;BME280;20454;48.100;11.776;2023-05-22T06:43:21;95116.22;;;17.60;67.04
34185;BME280;20454;48.100;11.776;2023-05-22T06:45:47;95109.41;;;17.61;66.96
34185;BME280;20454;48.100;11.776;2023-05-22T06:48:13;95108.56;;;17.60;66.94
34185;BME280;20454;48.100;11.776;2023-05-22T06:50:39;95110.59;;;17.60;66.86
34185;BME280;20454;48.100;11.776;2023-05-22T06:53:05;95114.19;;;17.60;67.06
34185;BME280;20454;48.100;11.776;2023-05-22T06:55:31;95110.59;;;17.60;66.91
34185;BME280;20454;48.100;11.776;2023-05-22T06:57:56;95111.38;;;17.60;66.75
34185;BME280;20454;48.100;11.776;2023-05-22T07:23:42;95138.72;;;17.60;67.05
34185;BME280;20454;48.100;11.776;2023-05-22T07:26:07;95133.91;;;17.60;66.91
34185;BME280;20454;48.100;11.776;2023-05-22T07:28:34;95121.84;;;17.60;66.73
34185;BME280;20454;48.100;11.776;2023-05-22T07:31:00;95131.06;;;17.60;66.97
34185;BME280;20454;48.100;11.776;2023-05-22T07:33:26;95128.25;;;17.60;67.06
34185;BME280;20454;48.100;11.776;2023-05-22T07:35:52;95135.50;;;17.61;66.63
34185;BME280;20454;48.100;11.776;2023-05-22T07:38:17;95131.06;;;17.60;66.82
34185;BME280;20454;48.100;11.776;2023-05-22T07:40:43;95123.47;;;17.61;67.04
34185;BME280;20454;48.100;11.776;2023-05-22T07:43:09;95131.91;;;17.61;66.65
34185;BME280;20454;48.100;11.776;2023-05-22T07:45:35;95126.28;;;17.61;67.00
34185;BME280;20454;48.100;11.776;2023-05-22T07:48:00;95135.50;;;17.61;66.70
34185;BME280;20454;48.100;11.776;2023-05-22T07:50:28;95134.72;;;17.61;67.01
34185;BME280;20454;48.100;11.776;2023-05-22T07:52:55;95136.72;;;17.60;66.96
34185;BME280;20454;48.100;11.776;2023-05-22T07:55:21;95133.09;;;17.60;67.02
34185;BME280;20454;48.100;11.776;2023-05-22T07:57:47;95135.91;;;17.60;66.90
34185;BME280;20454;48.100;11.776;2023-05-22T08:00:13;95124.66;;;17.60;66.80
34185;BME280;20454;48.100;11.776;2023-05-22T08:02:40;95133.91;;;17.60;66.78
34185;BME280;20454;48.100;11.776;2023-05-22T08:05:07;95131.91;;;17.61;66.79
34185;BME280;20454;48.100;11.776;2023-05-22T08:07:33;95131.91;;;17.61;66.58
34185;BME280;20454;48.100;11.776;2023-05-22T08:10:05;95133.09;;;17.60;66.95
34185;BME280;20454;48.100;11.776;2023-05-22T08:12:31;95123.00;;;17.59;66.74
34185;BME280;20454;48.100;11.776;2023-05-22T08:14:57;95122.63;;;17.60;66.61
34185;BME280;20454;48.100;11.776;2023-05-22T08:17:23;95117.00;;;17.60;66.74
34185;BME280;20454;48.100;11.776;2023-05-22T08:19:49;95117.00;;;17.60;66.73
34185;BME280;20454;48.100;11.776;2023-05-22T08:22:15;95121.84;;;17.60;66.74
34185;BME280;20454;48.100;11.776;2023-05-22T08:24:41;95116.22;;;17.60;66.79
34185;BME280;20454;48.100;11.776;2023-05-22T08:27:06;95119.03;;;17.60;66.57
34185;BME280;20454;48.100;11.776;2023-05-22T08:29:32;95121.84;;;17.60;66.94
34185;BME280;20454;48.100;11.776;2023-05-22T08:31:58;95117.00;;;17.60;66.49
34185;BME280;20454;48.100;11.776;2023-05-22T08:34:24;95106.59;;;17.61;66.87
34185;BME280;20454;48.100;11.776;2023-05-22T08:36:50;95113.41;;;17.60;66.49
34185;BME280;20454;48.100;11.776;2023-05-22T08:39:16;95112.22;;;17.61;66.55
34185;BME280;20454;48.100;11.776;2023-05-22T08:41:43;95119.81;;;17.60;66.75
34185;BME280;20454;48.100;11.776;2023-05-22T08:44:10;95114.56;;;17.59;66.47
34185;BME280;20454;48.100;11.776;2023-05-22T08:46:39;95100.50;;;17.59;66.57
34185;BME280;20454;48.100;11.776;2023-05-22T08:49:09;95111.75;;;17.59;66.59
34185;BME280;20454;48.100;11.776;2023-05-22T08:51:40;95108.94;;;17.59;66.70
34185;BME280;20454;48.100;11.776;2023-05-22T08:54:07;95111.38;;;17.60;66.47
34185;BME280;20454;48.100;11.776;2023-05-22T08:56:35;95105.75;;;17.60;66.63
34185;BME280;20454;48.100;11.776;2023-05-22T08:59:02;95108.56;;;17.60;66.51
34185;BME280;20454;48.100;11.776;2023-05-22T09:01:29;95112.56;;;17.59;66.76
34185;BME280;20454;48.100;11.776;2023-05-22T09:04:00;95102.16;;;17.60;66.78
34185;BME280;20454;48.100;11.776;2023-05-22T09:06:27;95106.59;;;17.61;66.47
34185;BME280;20454;48.100;11.776;2023-05-22T09:08:57;95104.13;;;17.59;66.39
34185;BME280;20454;48.100;11.776;2023-05-22T09:11:24;95104.13;;;17.59;66.54
34185;BME280;20454;48.100;11.776;2023-05-22T09:13:50;95108.94;;;17.59;66.41
34185;BME280;20454;48.100;11.776;2023-05-22T09:16:17;95106.13;;;17.59;66.50
34185;BME280;20454;48.100;11.776;2023-05-22T09:18:43;95112.56;;;17.59;66.41
34185;BME280;20454;48.100;11.776;2023-05-22T09:21:11;95108.94;;;17.59;66.43
34185;BME280;20454;48.100;11.776;2023-05-22T09:23:37;95106.13;;;17.59;66.80
34185;BME280;20454;48.100;11.776;2023-05-22T09:26:03;95111.75;;;17.59;66.37
34185;BME280;20454;48.100;11.776;2023-05-22T09:28:34;95104.06;;;17.56;66.44
34185;BME280;20454;48.100;11.776;2023-05-22T09:31:00;95106.94;;;17.59;66.25
34185;BME280;20454;48.100;11.776;2023-05-22T09:33:26;95106.94;;;17.59;66.40
34185;BME280;20454;48.100;11.776;2023-05-22T09:35:53;95110.59;;;17.60;66.73
34185;BME280;20454;48.100;11.776;2023-05-22T09:38:21;95104.13;;;17.59;66.28
34185;BME280;20454;48.100;11.776;2023-05-22T09:40:52;95105.34;;;17.58;66.45
34185;BME280;20454;48.100;11.776;2023-05-22T09:43:23;95101.31;;;17.59;66.38
34185;BME280;20454;48.100;11.776;2023-05-22T09:45:56;95104.97;;;17.60;66.46
34185;BME280;20454;48.100;11.776;2023-05-22T09:48:22;95106.94;;;17.59;66.27
34185;BME280;20454;48.100;11.776;2023-05-22T09:50:52;95106.13;;;17.59;66.46
34185;BME280;20454;48.100;11.776;2023-05-22T09:53:18;95104.13;;;17.59;66.76
34185;BME280;20454;48.100;11.776;2023-05-22T09:55:49;95108.16;;;17.58;66.62
34185;BME280;20454;48.100;11.776;2023-05-22T09:58:18;95101.31;;;17.59;66.43
34185;BME280;20454;48.100;11.776;2023-05-22T10:00:45;95109.75;;;17.59;66.27
34185;BME280;20454;48.100;11.776;2023-05-22T10:03:12;95103.31;;;17.59;66.47
34185;BME280;20454;48.100;11.776;2023-05-22T10:05:47;95098.09;;;17.57;66.23
34185;BME280;20454;48.100;11.776;2023-05-22T10:08:20;95095.69;;;17.59;66.39
34185;BME280;20454;48.100;11.776;2023-05-22T10:10:50;95108.16;;;17.58;66.25
34185;BME280;20454;48.100;11.776;2023-05-22T10:13:20;95105.34;;;17.58;66.62
34185;BME280;20454;48.100;11.776;2023-05-22T10:15:47;95110.97;;;17.58;66.47
34185;BME280;20454;48.100;11.776;2023-05-22T10:18:14;95107.31;;;17.58;66.19
34185;BME280;20454;48.100;11.776;2023-05-22T10:20:44;95100.91;;;17.57;66.58
34185;BME280;20454;48.100;11.776;2023-05-22T10:23:11;95103.72;;;17.57;66.29
34185;BME280;20454;48.100;11.776;2023-05-22T10:25:38;95104.13;;;17.59;66.59
34185;BME280;20454;48.100;11.776;2023-05-22T10:28:07;95092.47;;;17.57;66.43
34185;BME280;20454;48.100;11.776;2023-05-22T10:33:20;95096.88;;;17.58;66.25
34185;BME280;20454;48.100;11.776;2023-05-22T10:35:50;95094.44;;;17.57;66.16
34185;BME280;20454;48.100;11.776;2023-05-22T10:41:10;95093.25;;;17.58;66.64
34185;BME280;20454;48.100;11.776;2023-05-22T10:43:43;95096.88;;;17.58;66.45
34185;BME280;20454;48.100;11.776;2023-05-22T10:46:12;95092.47;;;17.57;66.43
34185;BME280;20454;48.100;11.776;2023-05-22T10:48:42;95089.66;;;17.57;66.30
34185;BME280;20454;48.100;11.776;2023-05-22T10:51:21;95093.25;;;17.58;66.21
34185;BME280;20454;48.100;11.776;2023-05-22T10:54:00;95090.06;;;17.59;66.26
34185;BME280;20454;48.100;11.776;2023-05-22T10:56:36;95087.63;;;17.58;66.56
34185;BME280;20454;48.100;11.776;2023-05-22T10:59:04;95081.19;;;17.57;66.36
34185;BME280;20454;48.100;11.776;2023-05-22T11:01:32;95090.44;;;17.58;66.45
34185;BME280;20454;48.100;11.776;2023-05-22T11:06:43;95085.63;;;17.58;66.32
34185;BME280;20454;48.100;11.776;2023-05-22T11:09:41;95081.19;;;17.57;66.49
34185;BME280;20454;48.100;11.776;2023-05-22T11:12:23;95080.00;;;17.58;66.21
34185;BME280;20454;48.100;11.776;2023-05-22T11:14:55;95070.75;;;17.58;66.23
34185;BME280;20454;48.100;11.776;2023-05-22T11:17:29;95075.56;;;17.57;66.25
34185;BME280;20454;48.100;11.776;2023-05-22T11:20:02;95082.00;;;17.58;66.13
34185;BME280;20454;48.100;11.776;2023-05-22T11:22:36;95081.19;;;17.57;66.17
34185;BME280;20454;48.100;11.776;2023-05-22T11:25:08;95067.13;;;17.57;66.40
34185;BME280;20454;48.100;11.776;2023-05-22T11:27:36;95078.38;;;17.57;66.12
34185;BME280;20454;48.100;11.776;2023-05-22T11:30:04;95079.19;;;17.58;66.19
34185;BME280;20454;48.100;11.776;2023-05-22T11:32:31;95075.56;;;17.57;66.09
34185;BME280;20454;48.100;11.776;2023-05-22T11:34:57;95072.75;;;17.57;66.40
34185;BME280;20454;48.100;11.776;2023-05-22T11:37:22;95068.34;;;17.56;66.16
34185;BME280;20454;48.100;11.776;2023-05-22T11:40:03;95078.38;;;17.57;66.46
34185;BME280;20454;48.100;11.776;2023-05-22T11:42:30;95069.13;;;17.57;66.20
34185;BME280;20454;48.100;11.776;2023-05-22T11:44:56;95067.94;;;17.58;66.29
34185;BME280;20454;48.100;11.776;2023-05-22T11:47:23;95056.69;;;17.58;66.10
34185;BME280;20454;48.100;11.776;2023-05-22T11:49:51;95065.50;;;17.56;66.39
34185;BME280;20454;48.100;11.776;2023-05-22T11:52:18;95064.31;;;17.57;66.10
34185;BME280;20454;48.100;11.776;2023-05-22T11:54:47;95056.69;;;17.58;66.12
34185;BME280;20454;48.100;11.776;2023-05-22T11:57:14;95055.06;;;17.57;66.25
34185;BME280;20454;48.100;11.776;2023-05-22T11:59:46;95055.88;;;17.57;66.49
34185;BME280;20454;48.100;11.776;2023-05-22T12:02:12;95055.88;;;17.57;66.04
34185;BME280;20454;48.100;11.776;2023-05-22T12:04:39;95055.88;;;17.57;66.36
34185;BME280;20454;48.100;11.776;2023-05-22T12:07:06;95059.88;;;17.56;66.45
34185;BME280;20454;48.100;11.776;2023-05-22T12:09:32;95066.31;;;17.57;66.42
34185;BME280;20454;48.100;11.776;2023-05-22T12:11:58;95057.06;;;17.56;66.11
34185;BME280;20454;48.100;11.776;2023-05-22T12:14:28;95062.72;;;17.56;66.51
34185;BME280;20454;48.100;11.776;2023-05-22T12:16:57;95062.31;;;17.58;66.08
34185;BME280;20454;48.100;11.776;2023-05-22T12:19:25;95055.06;;;17.57;66.44
34185;BME280;20454;48.100;11.776;2023-05-22T12:21:52;95056.69;;;17.58;66.15
34185;BME280;20454;48.100;11.776;2023-05-22T12:24:18;95057.06;;;17.56;66.22
34185;BME280;20454;48.100;11.776;2023-05-22T12:26:54;95041.81;;;17.57;66.31
34185;BME280;20454;48.100;11.776;2023-05-22T12:29:21;95054.69;;;17.58;66.14
34185;BME280;20454;48.100;11.776;2023-05-22T12:31:47;95042.19;;;17.56;66.27
34185;BME280;20454;48.100;11.776;2023-05-22T12:34:14;95039.38;;;17.56;65.99
34185;BME280;20454;48.100;11.776;2023-05-22T12:36:43;95049.44;;;17.57;66.28
34185;BME280;20454;48.100;11.776;2023-05-22T12:39:16;95046.63;;;17.57;66.28
34185;BME280;20454;48.100;11.776;2023-05-22T12:41:44;95035.38;;;17.57;66.39
34185;BME280;20454;48.100;11.776;2023-05-22T12:44:10;95045.00;;;17.56;66.20
34185;BME280;20454;48.100;11.776;2023-05-22T12:46:37;95040.19;;;17.56;66.00
34185;BME280;20454;48.100;11.776;2023-05-22T12:49:03;95037.38;;;17.56;66.00
34185;BME280;20454;48.100;11.776;2023-05-22T12:51:31;95036.56;;;17.56;66.15
34185;BME280;20454;48.100;11.776;2023-05-22T12:53:58;95034.56;;;17.56;66.19
34185;BME280;20454;48.100;11.776;2023-05-22T12:56:24;95033.38;;;17.57;66.25
34185;BME280;20454;48.100;11.776;2023-05-22T12:58:50;95030.09;;;17.55;66.03
34185;BME280;20454;48.100;11.776;2023-05-22T13:01:16;95022.91;;;17.58;66.20
34185;BME280;20454;48.100;11.776;2023-05-22T13:03:42;95024.13;;;17.57;66.13
34185;BME280;20454;48.100;11.776;2023-05-22T13:06:08;95020.50;;;17.56;65.99
34185;BME280;20454;48.100;11.776;2023-05-22T13:08:34;95012.84;;;17.57;66.16
34185;BME280;20454;48.100;11.776;2023-05-22T13:11:00;95018.84;;;17.55;66.14
34185;BME280;20454;48.100;11.776;2023-05-22T13:13:25;95019.69;;;17.56;66.39
34185;BME280;20454;48.100;11.776;2023-05-22T13:15:51;95019.31;;;17.57;66.08
34185;BME280;20454;48.100;11.776;2023-05-22T13:18:17;95019.69;;;17.56;65.99
34185;BME280;20454;48.100;11.776;2023-05-22T13:20:43;95017.69;;;17.56;66.05
34185;BME280;20454;48.100;11.776;2023-05-22T13:23:09;95009.25;;;17.56;66.11
34185;BME280;20454;48.100;11.776;2023-05-22T13:25:35;95014.88;;;17.56;66.06
34185;BME280;20454;48.100;11.776;2023-05-22T13:28:01;95014.88;;;17.56;66.16
34185;BME280;20454;48.100;11.776;2023-05-22T13:30:28;95008.44;;;17.56;66.14
34185;BME280;20454;48.100;11.776;2023-05-22T13:32:54;95021.66;;;17.55;66.03
34185;BME280;20454;48.100;11.776;2023-05-22T13:35:20;95020.50;;;17.56;66.37
34185;BME280;20454;48.100;11.776;2023-05-22T13:37:46;95018.84;;;17.55;66.09
34185;BME280;20454;48.100;11.776;2023-05-22T13:40:13;95007.59;;;17.55;66.03
34185;BME280;20454;48.100;11.776;2023-05-22T13:42:39;95009.63;;;17.55;66.00
34185;BME280;20454;48.100;11.776;2023-05-22T13:45:06;95009.63;;;17.55;66.34
34185;BME280;20454;48.100;11.776;2023-05-22T13:47:32;95009.25;;;17.56;66.37
34185;BME280;20454;48.100;11.776;2023-05-22T13:49:58;95011.25;;;17.56;66.06
34185;BME280;20454;48.100;11.776;2023-05-22T13:52:23;95009.63;;;17.55;66.35
34185;BME280;20454;48.100;11.776;2023-05-22T13:54:49;95014.06;;;17.56;66.42
34185;BME280;20454;48.100;11.776;2023-05-22T13:57:15;95012.44;;;17.55;66.28
34185;BME280;20454;48.100;11.776;2023-05-22T13:59:41;95004.00;;;17.55;66.15
34185;BME280;20454;48.100;11.776;2023-05-22T14:02:07;95003.63;;;17.56;66.25
34185;BME280;20454;48.100;11.776;2023-05-22T14:04:32;95003.16;;;17.54;66.42
34185;BME280;20454;48.100;11.776;2023-05-22T14:06:58;95007.59;;;17.55;66.26
34185;BME280;20454;48.100;11.776;2023-05-22T14:09:24;94999.16;;;17.55;65.96
34185;BME280;20454;48.100;11.776;2023-05-22T14:11:50;94989.94;;;17.55;66.43
34185;BME280;20454;48.100;11.776;2023-05-22T14:14:17;94988.72;;;17.56;66.24
34185;BME280;20454;48.100;11.776;2023-05-22T14:16:52;94985.94;;;17.56;66.28
34185;BME280;20454;48.100;11.776;2023-05-22T14:19:19;94992.75;;;17.55;66.44
34185;BME280;20454;48.100;11.776;2023-05-22T14:21:48;95007.59;;;17.55;66.32
34185;BME280;20454;48.100;11.776;2023-05-22T14:24:14;95005.63;;;17.56;66.20
34185;BME280;20454;48.100;11.776;2023-05-22T14:26:40;95007.59;;;17.55;65.96
34185;BME280;20454;48.100;11.776;2023-05-22T14:29:06;95013.22;;;17.55;66.40
34185;BME280;20454;48.100;11.776;2023-05-22T14:31:47;95005.97;;;17.54;66.08
34185;BME280;20454;48.100;11.776;2023-05-22T14:34:15;95003.16;;;17.54;66.33
34185;BME280;20454;48.100;11.776;2023-05-22T14:36:42;95000.34;;;17.54;66.19
34185;BME280;20454;48.100;11.776;2023-05-22T14:39:08;94998.75;;;17.53;66.21
34185;BME280;20454;48.100;11.776;2023-05-22T14:41:34;95007.59;;;17.55;66.10
34185;BME280;20454;48.100;11.776;2023-05-22T15:46:04;95020.44;;;17.53;65.95
34185;BME280;20454;48.100;11.776;2023-05-22T15:48:30;95022.06;;;17.54;66.33
34185;BME280;20454;48.100;11.776;2023-05-22T15:50:57;95011.25;;;17.56;66.35
34185;BME280;20454;48.100;11.776;2023-05-22T15:53:24;94999.50;;;17.50;66.31
34185;BME280;20454;48.100;11.776;2023-05-22T15:55:50;95000.34;;;17.54;66.11
34185;BME280;20454;48.100;11.776;2023-05-22T15:58:16;95000.75;;;17.53;66.18
34185;BME280;20454;48.100;11.776;2023-05-22T16:00:42;95008.44;;;17.56;66.27
34185;BME280;20454;48.100;11.776;2023-05-22T16:03:08;95004.78;;;17.55;66.58
34185;BME280;20454;48.100;11.776;2023-05-22T16:05:37;95006.81;;;17.55;66.62
34185;BME280;20454;48.100;11.776;2023-05-22T16:08:05;95000.34;;;17.54;66.36
34185;BME280;20454;48.100;11.776;2023-05-22T16:10:37;95006.81;;;17.55;66.42
34185;BME280;20454;48.100;11.776;2023-05-22T16:13:06;95000.34;;;17.54;66.22
34185;BME280;20454;48.100;11.776;2023-05-22T16:15:32;94997.53;;;17.54;66.49
34185;BME280;20454;48.100;11.776;2023-05-22T16:17:59;94988.25;;;17.50;66.31
34185;BME280;20454;48.100;11.776;2023-05-22T16:20:25;94989.94;;;17.55;66.48
34185;BME280;20454;48.100;11.776;2023-05-22T16:22:51;94991.91;;;17.54;66.47
34185;BME280;20454;48.100;11.776;2023-05-22T16:25:17;94989.09;;;17.54;66.12
34185;BME280;20454;48.100;11.776;2023-05-22T16:27:43;94990.31;;;17.53;66.44
34185;BME280;20454;48.100;11.776;2023-05-22T16:30:09;94989.88;;;17.51;66.03
34185;BME280;20454;48.100;11.776;2023-05-22T16:32:36;94989.50;;;17.53;66.17
34185;BME280;20454;48.100;11.776;2023-05-22T16:35:02;94992.75;;;17.55;66.11
34185;BME280;20454;48.100;11.776;2023-05-22T16:37:28;94991.91;;;17.54;66.25
34185;BME280;20454;48.100;11.776;2023-05-22T16:39:54;94993.13;;;17.53;66.39
34185;BME280;20454;48.100;11.776;2023-05-22T16:42:20;94984.69;;;17.53;66.31
34185;BME280;20454;48.100;11.776;2023-05-22T16:44:45;94990.31;;;17.53;66.07
34185;BME280;20454;48.100;11.776;2023-05-22T17:15:41;94981.84;;;17.53;66.30
34185;BME280;20454;48.100;11.776;2023-05-22T17:18:07;94979.03;;;17.53;66.13
34185;BME280;20454;48.100;11.776;2023-05-22T17:20:33;94981.84;;;17.53;66.37
34185;BME280;20454;48.100;11.776;2023-05-22T17:22:59;94981.84;;;17.53;65.98
34185;BME280;20454;48.100;11.776;2023-05-22T17:25:24;94976.22;;;17.53;66.31
34185;BME280;20454;48.100;11.776;2023-05-22T17:27:50;94985.88;;;17.52;66.26
34185;BME280;20454;48.100;11.776;2023-05-22T17:30:16;94981.84;;;17.53;65.98
34185;BME280;20454;48.100;11.776;2023-05-22T17:32:42;94979.88;;;17.54;66.02
34185;BME280;20454;48.100;11.776;2023-05-22T17:35:09;94986.69;;;17.53;66.18
34185;BME280;20454;48.100;11.776;2023-05-22T20:04:39;95102.41;;;17.51;66.19
34185;BME280;20454;48.100;11.776;2023-05-22T20:07:10;95107.19;;;17.51;66.28
34185;BME280;20454;48.100;11.776;2023-05-22T20:09:36;95106.41;;;17.50;66.20
34185;BME280;20454;48.100;11.776;2023-05-22T20:12:02;95100.78;;;17.50;66.17
34185;BME280;20454;48.100;11.776;2023-05-22T20:14:28;95099.59;;;17.51;66.03